Time;durP1;ratioP1;P1;durP2;ratioP2;P2;SDS_P1;SDS_P2;PMS_P1;PMS_P2;Temp;Humidity;BMP_temperature;BMP_pressure;BME280_temperature;BME280_humidity;BME280_pressure;Samples;Min_cycle;Max_cycle;Signal;HPM_P1;HPM_P2
2021/09/09 11:27:41;;;;;;;10.02;7.75;;;23.30;99.90;;;;;;5090949;28;20544;-67
2021/09/09 11:30:08;;;;;;;10.68;8.32;;;23.30;99.90;;;;;;5091117;28;20308;-67
2021/09/09 11:32:34;;;;;;;8.05;7.45;;;23.30;99.90;;;;;;5089580;28;20179;-67
2021/09/09 11:35:07;;;;;;;9.73;8.65;;;23.40;99.90;;;;;;5090784;28;20170;-67
2021/09/09 11:37:45;;;;;;;10.70;8.80;;;23.50;99.90;;;;;;5090781;28;20530;-67
2021/09/09 11:40:12;;;;;;;10.98;8.45;;;23.50;99.90;;;;;;5090723;28;20167;-67
2021/09/09 11:42:38;;;;;;;9.20;8.18;;;23.60;99.90;;;;;;5090638;28;20701;-67
2021/09/09 11:45:04;;;;;;;12.07;9.30;;;23.70;99.90;;;;;;5090552;28;20179;-67
2021/09/09 11:47:30;;;;;;;8.70;7.93;;;23.80;99.90;;;;;;5089189;28;20539;-65
2021/09/09 11:50:04;;;;;;;11.77;8.38;;;23.90;99.90;;;;;;5090614;28;20175;-65
2021/09/09 11:52:30;;;;;;;10.48;7.85;;;24.00;99.90;;;;;;5090374;28;20640;-65
2021/09/09 11:54:56;;;;;;;11.18;8.82;;;24.10;99.90;;;;;;5090384;28;20177;-65
2021/09/09 11:57:22;;;;;;;8.65;7.72;;;24.30;99.90;;;;;;5090364;28;20168;-65
2021/09/09 11:59:53;;;;;;;9.45;8.57;;;24.30;99.90;;;;;;5090206;28;20216;-65
2021/09/09 12:02:25;;;;;;;8.35;7.40;;;24.40;99.90;;;;;;5090192;28;20175;-65
2021/09/09 12:04:51;;;;;;;11.07;8.30;;;24.40;99.90;;;;;;5088981;28;20539;-65
2021/09/09 12:07:19;;;;;;;8.43;7.57;;;24.50;99.90;;;;;;5090052;28;20312;-65
2021/09/09 12:10:06;;;;;;;9.23;7.63;;;24.60;99.90;;;;;;5090060;28;20495;-65
2021/09/09 12:12:33;;;;;;;9.25;7.10;;;24.80;99.90;;;;;;5090095;28;20164;-65
2021/09/09 12:15:22;;;;;;;11.27;6.90;;;24.90;99.90;;;;;;5089965;28;20522;-65
2021/09/09 12:17:48;;;;;;;8.13;6.70;;;25.00;99.90;;;;;;5089896;28;20160;-65
2021/09/09 12:20:24;;;;;;;9.15;7.15;;;25.10;99.90;;;;;;5089942;28;20190;-65
2021/09/09 12:22:59;;;;;;;16.02;7.97;;;25.10;99.90;;;;;;5089852;28;20166;-65
2021/09/09 12:25:28;;;;;;;9.05;6.65;;;25.00;99.90;;;;;;5089560;28;20518;-66
2021/09/09 12:28:13;;;;;;;11.35;7.93;;;25.00;99.90;;;;;;5089742;28;20246;-65
2021/09/09 12:30:53;;;;;;;8.00;7.25;;;24.90;99.90;;;;;;5089732;28;20243;-65
2021/09/09 12:33:24;;;;;;;9.93;8.07;;;24.90;99.90;;;;;;5089700;28;20254;-65
2021/09/09 12:36:22;;;;;;;11.18;7.72;;;25.00;99.90;;;;;;5089621;28;20250;-65
2021/09/09 12:38:51;;;;;;;9.52;7.80;;;25.10;99.90;;;;;;5076440;28;20184;-65
2021/09/09 12:41:16;;;;;;;14.95;7.50;;;25.30;99.90;;;;;;5075942;28;20183;-65
2021/09/09 12:43:43;;;;;;;10.27;8.68;;;25.50;99.90;;;;;;5075986;28;20168;-65
2021/09/09 12:46:25;;;;;;;9.10;7.97;;;25.70;99.90;;;;;;5075824;28;20218;-65
2021/09/09 12:49:06;;;;;;;11.52;7.95;;;25.70;99.90;;;;;;5075922;28;20647;-65
2021/09/09 12:51:40;;;;;;;12.20;8.65;;;25.70;99.90;;;;;;5075884;28;20621;-65
2021/09/09 12:54:07;;;;;;;9.75;8.00;;;25.80;99.90;;;;;;5075875;28;20167;-65
2021/09/09 12:56:33;;;;;;;15.43;9.05;;;25.90;99.90;;;;;;5075715;28;20179;-65
2021/09/09 12:58:58;;;;;;;14.55;9.10;;;26.00;99.90;;;;;;5075736;28;20168;-65
2021/09/09 13:01:24;;;;;;;13.55;9.00;;;26.10;99.90;;;;;;5075644;28;20225;-65
2021/09/09 13:03:49;;;;;;;12.13;8.82;;;26.10;99.90;;;;;;5075721;28;20218;-65
2021/09/09 13:06:15;;;;;;;10.07;9.18;;;26.00;99.90;;;;;;5075457;28;20203;-65
2021/09/09 13:08:40;;;;;;;10.98;9.27;;;26.00;99.90;;;;;;5075496;28;20199;-66
2021/09/09 13:11:07;;;;;;;9.63;8.68;;;26.00;99.90;;;;;;5074215;28;20172;-65
2021/09/09 13:13:33;;;;;;;12.85;8.45;;;26.10;99.90;;;;;;5075424;28;20199;-65
2021/09/09 13:16:01;;;;;;;12.80;9.35;;;26.20;99.90;;;;;;5075470;28;20167;-65
2021/09/09 13:18:27;;;;;;;11.48;9.00;;;26.10;99.90;;;;;;5075263;28;20187;-65
2021/09/09 13:20:52;;;;;;;12.93;8.18;;;25.90;99.90;;;;;;5075387;28;20163;-65
2021/09/09 13:23:18;;;;;;;9.77;8.82;;;26.00;99.90;;;;;;5075673;28;20178;-65
2021/09/09 13:25:44;;;;;;;9.68;8.35;;;26.20;99.90;;;;;;5074906;28;20718;-66
2021/09/09 13:28:10;;;;;;;11.98;9.13;;;26.20;99.90;;;;;;5075238;28;20164;-65
2021/09/09 13:30:37;;;;;;;14.30;8.30;;;26.20;99.90;;;;;;5075041;28;20171;-65
2021/09/09 13:33:04;;;;;;;15.25;8.38;;;26.20;99.90;;;;;;5074969;28;20187;-66
2021/09/09 13:35:31;;;;;;;10.20;8.27;;;26.30;99.90;;;;;;5074887;28;20167;-66
2021/09/09 13:37:58;;;;;;;8.90;7.97;;;26.60;99.90;;;;;;5074823;28;20156;-65
2021/09/09 13:40:23;;;;;;;13.50;8.98;;;26.80;99.90;;;;;;5074895;28;20168;-65
2021/09/09 13:42:49;;;;;;;15.80;11.20;;;26.90;99.90;;;;;;5074878;28;20247;-65
2021/09/09 13:45:14;;;;;;;11.60;10.10;;;26.70;99.90;;;;;;5074716;28;20221;-65
2021/09/09 13:47:40;;;;;;;14.15;10.50;;;26.50;99.90;;;;;;5074690;28;20301;-65
2021/09/09 13:50:06;;;;;;;15.20;9.95;;;26.20;99.90;;;;;;5072456;28;20712;-65
2021/09/09 13:52:32;;;;;;;11.27;10.20;;;26.10;99.90;;;;;;5074679;28;20356;-65
2021/09/09 13:54:58;;;;;;;9.45;8.48;;;25.90;99.90;;;;;;5074629;28;20167;-65
2021/09/09 13:57:23;;;;;;;13.20;9.90;;;25.70;99.90;;;;;;5074553;28;20171;-65
2021/09/09 13:59:49;;;;;;;14.15;10.60;;;25.60;99.90;;;;;;5074398;28;25061;-65
2021/09/09 14:02:14;;;;;;;12.10;10.90;;;25.50;99.90;;;;;;5074527;28;20511;-65
2021/09/09 14:04:40;;;;;;;10.80;9.50;;;25.50;99.90;;;;;;5074402;28;20137;-65
2021/09/09 14:07:06;;;;;;;14.00;9.75;;;25.60;99.90;;;;;;5074354;28;20199;-65
2021/09/09 14:09:31;;;;;;;14.65;11.57;;;25.60;99.90;;;;;;5074407;28;20133;-65
2021/09/09 14:11:57;;;;;;;16.30;10.50;;;25.50;99.90;;;;;;5073108;28;20497;-65
2021/09/09 14:14:22;;;;;;;15.00;9.93;;;25.50;99.90;;;;;;5074395;28;20385;-65
2021/09/09 14:16:48;;;;;;;15.13;9.70;;;25.90;99.90;;;;;;5074241;28;20670;-65
2021/09/09 14:19:13;;;;;;;12.40;10.05;;;26.20;99.90;;;;;;5073989;28;20203;-65
2021/09/09 14:21:39;;;;;;;13.30;10.40;;;26.50;99.90;;;;;;5073933;28;20289;-65
2021/09/09 14:24:06;;;;;;;12.93;11.20;;;26.80;99.90;;;;;;5073899;28;20164;-65
2021/09/09 14:26:33;;;;;;;11.43;10.13;;;26.80;99.90;;;;;;5073639;28;20231;-65
2021/09/09 14:28:59;;;;;;;13.10;10.85;;;26.80;99.90;;;;;;5073849;28;20156;-65
2021/09/09 14:31:24;;;;;;;13.82;10.60;;;26.50;99.90;;;;;;5073862;28;20189;-65
2021/09/09 14:33:50;;;;;;;13.25;8.40;;;26.40;99.90;;;;;;5073803;28;20172;-66
2021/09/09 14:36:15;;;;;;;11.02;9.90;;;26.60;99.90;;;;;;5073671;28;20317;-65
2021/09/09 14:38:41;;;;;;;9.90;8.63;;;26.80;99.90;;;;;;5072414;28;20176;-65
2021/09/09 14:41:07;;;;;;;9.55;8.60;;;26.80;99.90;;;;;;5073667;28;20520;-65
2021/09/09 14:43:33;;;;;;;8.27;7.53;;;26.90;99.90;;;;;;5073523;28;20655;-66
2021/09/09 14:45:58;;;;;;;9.13;7.20;;;27.10;99.90;;;;;;5073485;28;20218;-65
2021/09/09 14:48:24;;;;;;;9.93;8.73;;;27.20;99.90;;;;;;5073552;28;20617;-65
2021/09/09 14:50:50;;;;;;;11.32;8.70;;;27.20;99.90;;;;;;5073592;28;20182;-65
2021/09/09 14:53:15;;;;;;;8.52;6.75;;;27.40;99.90;;;;;;5073504;28;20200;-65
2021/09/09 14:55:41;;;;;;;8.05;7.30;;;27.50;99.90;;;;;;5073486;28;20226;-65
2021/09/09 14:58:07;;;;;;;7.03;6.32;;;27.60;99.90;;;;;;5073475;28;20206;-65
2021/09/09 15:00:33;;;;;;;6.70;6.10;;;27.60;99.90;;;;;;5073236;28;20159;-65
2021/09/09 15:02:58;;;;;;;7.13;5.72;;;27.50;99.90;;;;;;5073474;28;20527;-65
2021/09/09 15:05:24;;;;;;;5.55;5.00;;;27.50;99.90;;;;;;5073377;28;20617;-65
2021/09/09 15:07:49;;;;;;;9.43;4.80;;;27.40;99.90;;;;;;5073294;28;20172;-65
2021/09/09 15:10:15;;;;;;;9.40;5.20;;;27.40;99.90;;;;;;5073390;28;20175;-65
2021/09/09 15:12:41;;;;;;;8.75;4.80;;;27.50;99.90;;;;;;5072137;28;20523;-66
2021/09/09 15:15:07;;;;;;;4.40;4.00;;;27.60;99.90;;;;;;5073329;28;20173;-66
2021/09/09 15:17:33;;;;;;;3.35;3.15;;;27.60;99.90;;;;;;5073218;28;20229;-65
2021/09/09 15:19:58;;;;;;;3.38;3.08;;;27.70;99.90;;;;;;5073155;28;20282;-65
2021/09/09 15:22:24;;;;;;;3.13;2.92;;;27.80;99.90;;;;;;5071961;28;20179;-66
2021/09/09 15:24:50;;;;;;;5.53;3.40;;;27.80;99.90;;;;;;5073269;28;20523;-65
2021/09/09 15:27:15;;;;;;;3.20;3.00;;;27.70;99.90;;;;;;5073054;28;20226;-65
2021/09/09 15:29:41;;;;;;;5.38;3.28;;;27.50;99.90;;;;;;5073145;28;20172;-65
2021/09/09 15:32:07;;;;;;;4.70;3.20;;;27.20;99.90;;;;;;5073099;28;20180;-65
2021/09/09 15:34:33;;;;;;;6.15;3.55;;;26.80;99.90;;;;;;5073081;28;20300;-65
2021/09/09 15:36:58;;;;;;;3.73;3.13;;;26.50;99.90;;;;;;5071806;28;20528;-65
2021/09/09 15:39:25;;;;;;;4.10;3.67;;;26.20;99.90;;;;;;5073081;28;20390;-65
2021/09/09 15:41:51;;;;;;;3.45;3.25;;;25.90;99.90;;;;;;5073129;28;20172;-65
2021/09/09 15:44:17;;;;;;;5.82;3.50;;;25.70;99.90;;;;;;5073012;28;20171;-65
2021/09/09 15:46:43;;;;;;;;;;;25.50;99.90;;;;;;5073170;28;20168;-65
2021/09/09 15:49:08;;;;;;;6.47;3.83;;;25.40;99.90;;;;;;5073008;28;20859;-65
2021/09/09 15:51:34;;;;;;;3.80;3.40;;;25.20;99.90;;;;;;5073033;28;20254;-65
2021/09/09 15:54:00;;;;;;;3.30;2.90;;;25.10;99.90;;;;;;5072954;28;20172;-65
